createdAt,value
2024-05-09T00:05:09.244Z,11.29
2024-05-09T00:15:14.254Z,11.23
2024-05-09T00:25:19.220Z,11.12
2024-05-09T00:35:24.453Z,11.03
2024-05-09T00:45:29.457Z,10.91
2024-05-09T00:55:34.334Z,10.81
2024-05-09T01:05:41.483Z,10.80
2024-05-09T01:15:48.070Z,10.71
2024-05-09T01:25:53.037Z,10.61
2024-05-09T01:35:58.008Z,10.54
2024-05-09T01:46:02.947Z,10.46
2024-05-09T01:56:08.337Z,10.38
2024-05-09T02:06:13.404Z,10.31
2024-05-09T02:16:18.754Z,10.24
2024-05-09T02:26:23.762Z,10.05
2024-05-09T02:36:28.955Z,10.03
2024-05-09T02:46:35.360Z,9.94
2024-05-09T02:56:40.606Z,9.75
2024-05-09T03:06:46.237Z,9.69
2024-05-09T03:16:51.155Z,9.59
2024-05-09T03:26:56.422Z,9.50
2024-05-09T03:37:01.298Z,9.42
2024-05-09T03:47:06.297Z,9.33
2024-05-09T03:57:11.202Z,9.11
2024-05-09T04:07:16.785Z,9.15
2024-05-09T04:17:21.779Z,9.06
2024-05-09T04:27:26.976Z,9.19
2024-05-09T04:37:32.701Z,9.35
2024-05-09T04:47:37.841Z,9.53
2024-05-09T04:57:42.925Z,9.74
2024-05-09T05:07:47.835Z,9.64
2024-05-09T05:17:53.046Z,9.45
2024-05-09T05:27:58.089Z,9.77
2024-05-09T05:38:03.055Z,10.10
2024-05-09T05:48:09.938Z,10.32
2024-05-09T05:58:15.338Z,10.51
2024-05-09T06:08:20.431Z,10.75
2024-05-09T06:18:25.612Z,10.83
2024-05-09T06:28:30.600Z,11.08
2024-05-09T06:38:35.651Z,11.29
2024-05-09T06:48:40.761Z,11.54
2024-05-09T06:58:45.886Z,11.91
2024-05-09T07:08:52.445Z,12.13
2024-05-09T07:18:57.829Z,12.50
2024-05-09T07:29:02.957Z,12.67
2024-05-09T07:39:08.320Z,12.90
2024-05-09T07:50:55.723Z,13.28
2024-05-09T07:59:38.731Z,13.98
2024-05-09T08:09:43.734Z,14.52
2024-05-09T08:19:48.749Z,15.81
2024-05-09T08:29:53.962Z,16.92
2024-05-09T08:39:59.002Z,18.48
2024-05-09T08:50:05.326Z,19.98
2024-05-09T09:00:15.143Z,20.95
2024-05-09T09:10:32.002Z,22.91
2024-05-09T09:20:38.312Z,23.62
2024-05-09T09:30:43.775Z,25.00
2024-05-09T09:40:50.428Z,25.22
2024-05-09T09:50:55.850Z,24.77
2024-05-09T10:01:00.981Z,24.46
2024-05-09T10:11:08.401Z,25.16
2024-05-09T10:21:20.166Z,25.11
2024-05-09T10:31:25.377Z,26.62
2024-05-09T10:41:30.282Z,28.16
2024-05-09T10:51:35.363Z,27.38
2024-05-09T11:01:40.376Z,26.44
2024-05-09T11:11:45.532Z,27.02
2024-05-09T11:21:57.194Z,27.37
2024-05-09T11:32:02.237Z,28.56
2024-05-09T11:42:07.432Z,27.17
2024-05-09T11:52:12.502Z,28.17
2024-05-09T12:02:17.578Z,28.74
2024-05-09T12:12:22.603Z,27.12
2024-05-09T12:22:27.512Z,26.45
2024-05-09T12:32:32.474Z,28.31
2024-05-09T12:42:37.464Z,29.41
2024-05-09T12:52:42.457Z,28.19
2024-05-09T13:02:47.718Z,27.75
2024-05-09T13:12:52.843Z,28.62
2024-05-09T13:22:57.799Z,28.52
2024-05-09T13:33:02.924Z,28.52
2024-05-09T13:43:08.057Z,29.19
2024-05-09T13:53:12.944Z,28.40
2024-05-09T14:03:19.733Z,27.67
2024-05-09T14:13:25.965Z,26.11
2024-05-09T14:23:30.839Z,27.84
2024-05-09T14:33:36.126Z,28.00
2024-05-09T14:43:41.162Z,27.65
2024-05-09T14:53:46.419Z,27.71
2024-05-09T15:03:51.861Z,27.48
2024-05-09T15:13:56.878Z,27.81
2024-05-09T15:24:01.774Z,27.05
2024-05-09T15:34:08.227Z,26.76
2024-05-09T15:44:13.690Z,25.42
2024-05-09T15:54:18.581Z,25.32
2024-05-09T16:04:23.706Z,25.21
2024-05-09T16:14:28.674Z,24.98
2024-05-09T16:24:33.760Z,23.78
2024-05-09T16:34:38.941Z,23.67
2024-05-09T16:44:43.940Z,22.89
2024-05-09T16:54:49.263Z,22.45
2024-05-09T17:04:54.356Z,21.92
2024-05-09T17:14:59.419Z,21.56
2024-05-09T17:25:05.578Z,21.09
2024-05-09T17:35:10.860Z,20.56
2024-05-09T17:45:15.838Z,19.83
2024-05-09T17:55:21.300Z,19.45
2024-05-09T18:05:29.015Z,19.02
2024-05-09T18:15:34.219Z,18.59
2024-05-09T18:25:39.581Z,18.15
2024-05-09T18:35:46.115Z,17.80
2024-05-09T18:45:51.222Z,17.48
2024-05-09T18:55:56.372Z,17.15
2024-05-09T19:06:01.595Z,16.87
2024-05-09T19:16:06.922Z,16.70
2024-05-09T19:26:11.867Z,16.58
2024-05-09T19:36:19.321Z,16.47
2024-05-09T19:46:24.353Z,16.39
2024-05-09T19:56:29.605Z,16.32
2024-05-09T20:06:34.588Z,16.31
2024-05-09T20:16:39.550Z,16.20
2024-05-09T20:26:44.865Z,16.08
2024-05-09T20:36:49.791Z,16.09
2024-05-09T20:46:54.814Z,16.05
2024-05-09T20:56:59.832Z,15.89
2024-05-09T21:07:05.192Z,15.72
2024-05-09T21:17:10.264Z,15.52
2024-05-09T21:27:15.486Z,15.26
2024-05-09T21:37:20.429Z,15.05
2024-05-09T21:47:25.612Z,14.81
2024-05-09T21:57:30.827Z,14.61
2024-05-09T22:07:35.863Z,14.51
2024-05-09T22:17:45.128Z,14.42
2024-05-09T22:27:50.271Z,14.35
2024-05-09T22:37:55.270Z,14.15
2024-05-09T22:48:00.592Z,14.03
2024-05-09T22:58:06.001Z,13.85
2024-05-09T23:08:12.107Z,13.73
2024-05-09T23:18:17.117Z,13.55
2024-05-09T23:28:22.190Z,13.46
2024-05-09T23:38:27.395Z,13.29
2024-05-09T23:48:32.406Z,13.14
2024-05-09T23:58:37.418Z,12.99
